Almena, KS (67622)

11:35 AM CDT on March 24, 2017 (GMT -0500)
RDS Farms | | Change Station

Elev 2159 ft 39.82 °N, 99.57 °W | Updated 19 seconds ago

Overcast
Overcast
43.9 °F
Feels Like 40 °F
N
6.0
Wind Variable Wind from NE

Today
High -- | Low -- °F
--% Chance of Precip.
Yesterday
High -- | Low -- °F
Precip. -- in
Pressure 29.78 in
Visibility 4.0 miles
Clouds Overcast 500 ft
Windchill 40 °F
Dew Point 42 °F
Humidity 93%
Rainfall 0.15 in
Snow Depth Not available.
7:35 AM 7:55 PM
Waning Crescent, 14% visible
METAR KHLC 241553Z AUTO 04020G28KT 4SM BR OVC005 09/08 A2979 RMK AO2 PK WND 04034/1538 SLP082 T00940083 TSNO
Pressure 29.78 in
Visibility 4.0 miles
Clouds Overcast 500 ft
Windchill 40 °F
Dew Point 42 °F
Humidity 93%
Rainfall 0.15 in
Snow Depth Not available.
7:35 AM 7:55 PM
Waning Crescent, 14% visible
METAR KHLC 241553Z AUTO 04020G28KT 4SM BR OVC005 09/08 A2979 RMK AO2 PK WND 04034/1538 SLP082 T00940083 TSNO

Get Severe Weather Alerts

Thanks for signing up!

Be on the lookout for a verification email in your inbox.

You'll start receiving the daily forecast at 8 AM.

×

10-Day Weather Forecast

Almanac

Astronomy

Mar. 24, 2017 Rise Set
Actual Time
Civil Twilight
Nautical Twilight
Astronomical Twilight
Moon
Length of Visible Light
Length of Day
Tomorrow will be .
, % of the Moon is Illuminated

Today's Extremes

State Highs State Lows

Community

WunderPhotos

Upload Photos

1,962,540 photos uploaded!

WunderBlog® & News

Nearby

Air Quality

  Air Quality AQ Index Pollutant
Not available.

Snow Depth

Station Depth Elevation

Earthquake Activity

City Distance Mag. Time & Date
Minimum magnitude displayed is 2.5.

Earthquake Activity

City Distance Mag. Time & Date
Minimum magnitude displayed is 2.5.

Coastal Water Temperatures

Place Temperature

Stations

Nearby Weather Stations

Station Location Temp. Windchill Dew Point Humidity Wind Precip. Elev Updated Type
                   

Watches & Warnings

There are currently no watches in effect.